Barneveld, Wisconsin
Current Conditions -  °F | °C
As of 9:15 PM on Wednesday 22 Oct 2014 (Local Time) from KMRJ Reporting Station
Clear Clear  
Wind Chill: 41°   Ceiling: Unl
Heat Index: 45°   Visibility: 10mi
Dew Point: 34°   Wind: 6mph
Humidity: 66%   Direction: 150°SSE
Pressure: 30.22"   Gusts: NA
Location:  43.02°N, 89.9°W
Report Text: KMRJ 230215Z AUTO 15005KT 10SM CLR 07/01 A3022 RMK AO2
Loading
Personal Weather Stations






























Interactive Weather Map
Tropical Storm Tracking
New forecast layout! Learn more

10-Day Weather Forecast

Advertisements
Track Severe Weather on mobile